createdAt,value
2018-04-13T00:02:11.244Z,16.90
2018-04-13T00:04:38.747Z,16.88
2018-04-13T00:07:06.234Z,16.88
2018-04-13T00:09:33.695Z,16.89
2018-04-13T00:12:01.161Z,16.88
2018-04-13T00:14:28.623Z,16.89
2018-04-13T00:16:56.157Z,16.90
2018-04-13T00:19:23.640Z,16.92
2018-04-13T00:21:51.215Z,16.88
2018-04-13T00:24:18.667Z,16.88
2018-04-13T00:26:46.111Z,16.89
2018-04-13T00:29:13.608Z,16.89
2018-04-13T00:31:41.080Z,16.88
2018-04-13T00:34:08.680Z,16.86
2018-04-13T00:36:36.216Z,16.83
2018-04-13T00:39:03.702Z,16.82
2018-04-13T00:41:31.150Z,16.80
2018-04-13T00:43:58.651Z,16.79
2018-04-13T00:46:26.137Z,16.74
2018-04-13T00:48:53.622Z,16.68
2018-04-13T00:51:21.094Z,16.68
2018-04-13T00:53:48.625Z,16.65
2018-04-13T00:56:16.133Z,16.61
2018-04-13T00:58:43.652Z,16.59
2018-04-13T01:01:11.145Z,16.59
2018-04-13T01:03:38.667Z,16.59
2018-04-13T01:06:06.191Z,16.59
2018-04-13T01:08:33.802Z,16.61
2018-04-13T01:11:01.260Z,16.60
2018-04-13T01:13:28.767Z,16.61
2018-04-13T01:15:56.277Z,16.61
2018-04-13T01:18:23.787Z,16.60
2018-04-13T01:20:51.382Z,16.56
2018-04-13T01:23:18.885Z,16.54
2018-04-13T01:25:46.344Z,16.54
2018-04-13T01:28:13.868Z,16.56
2018-04-13T01:30:41.361Z,16.55
2018-04-13T01:33:08.848Z,16.51
2018-04-13T01:35:36.321Z,16.50
2018-04-13T01:38:03.803Z,16.54
2018-04-13T01:40:31.269Z,16.55
2018-04-13T01:42:58.800Z,16.56
2018-04-13T01:45:26.361Z,16.57
2018-04-13T01:47:53.835Z,16.57
2018-04-13T01:50:21.303Z,16.56
2018-04-13T01:52:49.055Z,16.58
2018-04-13T01:55:16.546Z,16.55
2018-04-13T01:57:44.045Z,16.56
2018-04-13T02:00:11.600Z,16.56
2018-04-13T02:02:39.060Z,16.54
2018-04-13T02:05:06.631Z,16.49
2018-04-13T02:07:34.087Z,16.48
2018-04-13T02:10:01.589Z,16.44
2018-04-13T02:12:29.075Z,16.40
2018-04-13T02:14:56.595Z,16.37
2018-04-13T02:17:24.088Z,16.33
2018-04-13T02:19:51.546Z,16.31
2018-04-13T02:22:19.056Z,16.26
2018-04-13T02:24:46.539Z,16.25
2018-04-13T02:27:14.043Z,16.24
2018-04-13T02:29:41.630Z,16.23
2018-04-13T02:32:09.288Z,16.19
2018-04-13T02:34:36.855Z,16.16
2018-04-13T02:37:04.251Z,16.15
2018-04-13T02:39:31.853Z,16.14
2018-04-13T02:41:59.411Z,16.14
2018-04-13T02:44:26.863Z,16.14
2018-04-13T02:46:54.432Z,16.15
2018-04-13T02:49:21.957Z,16.15
2018-04-13T02:51:49.419Z,16.17
2018-04-13T02:54:16.872Z,16.17
2018-04-13T02:56:44.382Z,16.17
2018-04-13T02:59:11.859Z,16.16
2018-04-13T03:01:39.356Z,16.16
2018-04-13T03:04:07.742Z,16.15
2018-04-13T03:06:35.212Z,16.15
2018-04-13T03:09:02.733Z,16.13
2018-04-13T03:11:30.188Z,16.12
2018-04-13T03:13:57.682Z,16.11
2018-04-13T03:16:25.167Z,16.09
2018-04-13T03:18:52.704Z,16.05
2018-04-13T03:21:20.165Z,16.06
2018-04-13T03:23:47.656Z,16.08
2018-04-13T03:26:15.164Z,16.09
2018-04-13T03:28:42.695Z,16.11
2018-04-13T03:31:10.300Z,16.16
2018-04-13T03:33:37.799Z,16.22
2018-04-13T03:36:05.283Z,16.26
2018-04-13T03:38:32.798Z,16.30
2018-04-13T03:41:00.302Z,16.37
2018-04-13T03:43:27.767Z,16.40
2018-04-13T03:45:55.236Z,16.44
2018-04-13T03:48:22.708Z,16.47
2018-04-13T03:50:50.191Z,16.52
2018-04-13T03:53:17.705Z,16.56
2018-04-13T03:55:45.212Z,16.59
2018-04-13T03:58:12.788Z,16.66
2018-04-13T04:00:40.238Z,16.72
2018-04-13T04:03:07.736Z,16.73
2018-04-13T04:05:35.227Z,16.70
2018-04-13T04:08:02.680Z,16.67
2018-04-13T04:10:30.143Z,16.67
2018-04-13T04:12:57.661Z,16.68
2018-04-13T04:15:25.256Z,16.65
2018-04-13T04:17:52.721Z,16.69
2018-04-13T04:20:32.044Z,16.67
2018-04-13T04:23:11.347Z,16.66
2018-04-13T04:26:02.442Z,16.67
2018-04-13T04:28:29.952Z,16.70
2018-04-13T04:30:57.474Z,16.72
2018-04-13T04:33:25.077Z,16.72
2018-04-13T04:35:52.583Z,16.74
2018-04-13T04:38:20.067Z,16.74
2018-04-13T04:40:47.580Z,16.79
2018-04-13T04:43:15.040Z,16.82
2018-04-13T04:45:42.504Z,16.86
2018-04-13T04:48:10.006Z,16.85
2018-04-13T04:50:37.475Z,16.87
2018-04-13T04:53:04.962Z,16.87
2018-04-13T04:55:32.422Z,16.87
2018-04-13T04:57:59.901Z,16.88
2018-04-13T05:00:27.387Z,16.89
2018-04-13T05:02:54.839Z,16.93
2018-04-13T05:05:22.289Z,16.99
2018-04-13T05:07:49.764Z,17.03
2018-04-13T05:10:17.210Z,17.06
2018-04-13T05:12:44.692Z,17.07
2018-04-13T05:15:12.331Z,17.07
2018-04-13T05:17:39.795Z,17.06
2018-04-13T05:20:07.336Z,17.07
2018-04-13T05:22:34.898Z,17.07
2018-04-13T05:25:02.353Z,17.06
2018-04-13T05:27:29.848Z,17.08
2018-04-13T05:29:57.347Z,17.06
2018-04-13T05:32:24.799Z,17.09
2018-04-13T05:34:52.363Z,17.10
2018-04-13T05:37:19.956Z,17.08
2018-04-13T05:39:47.465Z,17.07
2018-04-13T05:42:14.970Z,17.05
2018-04-13T05:44:42.430Z,17.03
2018-04-13T05:47:09.906Z,17.04
2018-04-13T05:49:37.373Z,17.04
2018-04-13T05:52:04.871Z,17.05
2018-04-13T05:54:32.364Z,17.09
2018-04-13T05:56:59.811Z,17.17
2018-04-13T05:59:27.313Z,17.19
2018-04-13T06:01:54.788Z,17.22
2018-04-13T06:04:22.268Z,17.24
2018-04-13T06:06:49.789Z,17.27
2018-04-13T06:09:17.308Z,17.28
2018-04-13T06:11:44.873Z,17.23
2018-04-13T06:14:12.365Z,17.28
2018-04-13T06:16:39.856Z,17.37
2018-04-13T06:19:07.323Z,17.41
2018-04-13T06:21:34.780Z,17.42
2018-04-13T06:24:02.294Z,17.33
2018-04-13T06:26:29.791Z,17.25
2018-04-13T06:28:57.275Z,17.18
2018-04-13T06:31:24.902Z,17.08
2018-04-13T06:33:52.488Z,16.96
2018-04-13T06:36:19.989Z,16.83
2018-04-13T06:38:47.461Z,16.79
2018-04-13T06:41:15.084Z,16.70
2018-04-13T06:43:42.599Z,16.53
2018-04-13T06:46:10.051Z,16.39
2018-04-13T06:48:37.579Z,16.30
2018-04-13T06:51:05.127Z,16.29
2018-04-13T06:53:32.597Z,16.29
2018-04-13T06:56:00.091Z,16.32
2018-04-13T06:58:27.551Z,16.31
2018-04-13T07:00:55.108Z,16.30
2018-04-13T07:03:22.568Z,16.32
2018-04-13T07:05:50.073Z,16.25
2018-04-13T07:08:17.690Z,16.28
2018-04-13T07:10:45.147Z,16.23
2018-04-13T07:13:12.599Z,16.23
2018-04-13T07:15:40.071Z,16.27
2018-04-13T07:18:07.623Z,16.36
2018-04-13T07:20:35.075Z,16.45
2018-04-13T07:23:02.706Z,16.45
2018-04-13T07:25:30.216Z,16.45
2018-04-13T07:27:57.782Z,16.38
2018-04-13T07:30:25.260Z,16.36
2018-04-13T07:32:52.809Z,16.38
2018-04-13T07:35:20.350Z,16.34
2018-04-13T07:37:47.826Z,16.24
2018-04-13T07:40:15.318Z,16.17
2018-04-13T07:42:42.791Z,16.08
2018-04-13T07:45:10.284Z,16.01
2018-04-13T07:47:37.793Z,15.89
2018-04-13T07:50:05.305Z,15.75
2018-04-13T07:52:32.818Z,15.63
2018-04-13T07:55:00.310Z,15.55
2018-04-13T07:57:27.804Z,15.45
2018-04-13T07:59:55.317Z,15.36
2018-04-13T08:02:22.900Z,15.32
2018-04-13T08:04:50.370Z,15.27
2018-04-13T08:07:17.877Z,15.28
2018-04-13T08:09:45.328Z,15.32
2018-04-13T08:12:12.812Z,15.40
2018-04-13T08:14:40.339Z,15.41
2018-04-13T08:17:07.810Z,15.32
2018-04-13T08:19:35.282Z,15.22
2018-04-13T08:22:02.762Z,15.15
2018-04-13T08:24:30.227Z,15.12
2018-04-13T08:26:57.727Z,15.09
2018-04-13T08:29:25.231Z,15.10
2018-04-13T08:31:52.714Z,15.15
2018-04-13T08:34:20.290Z,15.32
2018-04-13T08:36:47.840Z,15.45
2018-04-13T08:39:15.393Z,15.54
2018-04-13T08:41:42.914Z,15.60
2018-04-13T08:44:10.432Z,15.68
2018-04-13T08:46:37.913Z,15.69
2018-04-13T08:49:05.544Z,15.70
2018-04-13T08:51:32.940Z,15.76
2018-04-13T08:54:00.458Z,15.86
2018-04-13T08:56:28.014Z,15.81
2018-04-13T08:58:55.589Z,15.73
2018-04-13T09:01:23.052Z,15.65
2018-04-13T09:03:50.604Z,15.70
2018-04-13T09:06:18.079Z,15.91
2018-04-13T09:08:45.563Z,16.24
2018-04-13T09:11:13.021Z,16.51
2018-04-13T09:13:40.536Z,16.78
2018-04-13T09:16:08.007Z,16.97
2018-04-13T09:18:35.467Z,17.22
2018-04-13T09:21:02.939Z,17.57
2018-04-13T09:23:30.448Z,17.82
2018-04-13T09:25:57.971Z,17.98
2018-04-13T09:28:25.440Z,17.89
2018-04-13T09:30:52.928Z,18.15
2018-04-13T09:33:20.458Z,18.33
2018-04-13T09:35:47.999Z,18.28
2018-04-13T09:38:15.485Z,18.26
2018-04-13T09:40:42.978Z,18.18
2018-04-13T09:43:10.487Z,18.37
2018-04-13T09:45:38.076Z,18.33
2018-04-13T09:48:05.538Z,18.37
2018-04-13T09:50:33.034Z,18.35
2018-04-13T09:53:00.509Z,18.16
2018-04-13T09:55:28.009Z,17.92
2018-04-13T09:57:55.575Z,18.01
2018-04-13T10:00:28.738Z,17.99
2018-04-13T10:03:01.817Z,17.87
2018-04-13T10:05:29.312Z,17.81
2018-04-13T10:07:56.796Z,17.82
2018-04-13T10:10:24.318Z,17.79
2018-04-13T10:12:52.661Z,17.57
2018-04-13T10:15:20.344Z,17.41
2018-04-13T10:17:47.864Z,17.35
2018-04-13T10:20:15.343Z,17.19
2018-04-13T10:22:42.887Z,17.09
2018-04-13T10:25:10.420Z,17.06
2018-04-13T10:27:37.924Z,17.13
2018-04-13T10:30:05.395Z,17.13
2018-04-13T10:32:32.851Z,17.25
2018-04-13T10:35:00.374Z,17.40
2018-04-13T10:37:27.877Z,17.52
2018-04-13T10:39:55.412Z,17.53
2018-04-13T10:42:22.916Z,17.45
2018-04-13T10:44:50.400Z,17.48
2018-04-13T10:47:17.856Z,17.51
2018-04-13T10:49:45.345Z,17.49
2018-04-13T10:52:13.163Z,17.43
2018-04-13T10:54:40.618Z,17.37
2018-04-13T10:57:08.120Z,17.23
2018-04-13T10:59:35.823Z,17.24
2018-04-13T11:02:03.283Z,17.24
2018-04-13T11:04:30.903Z,16.78
2018-04-13T11:06:58.537Z,16.75
2018-04-13T11:09:26.060Z,16.78
2018-04-13T11:11:53.547Z,16.94
2018-04-13T11:14:21.077Z,17.01
2018-04-13T11:16:48.618Z,17.17
2018-04-13T11:19:16.105Z,17.41
2018-04-13T11:21:43.602Z,17.60
2018-04-13T11:24:11.085Z,17.58
2018-04-13T11:26:38.733Z,17.61
2018-04-13T11:29:06.227Z,18.00
2018-04-13T11:31:33.698Z,18.35
2018-04-13T11:34:01.216Z,18.61
2018-04-13T11:36:28.775Z,18.92
2018-04-13T11:38:56.236Z,19.06
2018-04-13T11:41:23.706Z,18.86
2018-04-13T11:43:51.160Z,18.49
2018-04-13T11:46:18.665Z,18.46
2018-04-13T11:48:46.120Z,18.65
2018-04-13T11:51:13.575Z,19.21
2018-04-13T11:53:41.111Z,19.26
2018-04-13T11:56:08.583Z,19.24
2018-04-13T11:58:36.102Z,19.31
2018-04-13T12:01:03.561Z,19.42
2018-04-13T12:03:31.035Z,19.63
2018-04-13T12:05:58.507Z,19.88
2018-04-13T12:08:25.972Z,20.08
2018-04-13T12:10:53.432Z,20.28
2018-04-13T12:13:20.919Z,20.25
2018-04-13T12:15:48.503Z,19.73
2018-04-13T12:18:15.959Z,19.72
2018-04-13T12:20:43.441Z,19.57
2018-04-13T12:23:10.897Z,19.51
2018-04-13T12:25:38.384Z,19.15
2018-04-13T12:28:05.874Z,19.26
2018-04-13T12:30:33.335Z,19.70
2018-04-13T12:33:00.934Z,20.21
2018-04-13T12:35:28.491Z,20.52
2018-04-13T12:37:56.013Z,20.27
2018-04-13T12:40:23.583Z,19.79
2018-04-13T12:42:51.105Z,19.75
2018-04-13T12:45:18.615Z,19.71
2018-04-13T12:47:46.073Z,19.52
2018-04-13T12:50:13.572Z,19.43
2018-04-13T12:52:41.102Z,19.62
2018-04-13T12:55:08.975Z,19.78
2018-04-13T12:57:36.170Z,19.85
2018-04-13T13:00:03.628Z,20.01
2018-04-13T13:02:31.213Z,20.37
2018-04-13T13:04:58.713Z,20.33
2018-04-13T13:07:26.222Z,20.30
2018-04-13T13:09:53.786Z,20.49
2018-04-13T13:12:21.274Z,20.52
2018-04-13T13:14:48.731Z,20.44
2018-04-13T13:17:16.234Z,20.30
2018-04-13T13:19:43.734Z,20.47
2018-04-13T13:22:11.294Z,20.50
2018-04-13T13:24:38.785Z,20.46
2018-04-13T13:27:06.277Z,20.41
2018-04-13T13:29:33.860Z,20.41
2018-04-13T13:32:01.444Z,20.61
2018-04-13T13:34:28.964Z,20.63
2018-04-13T13:36:56.454Z,20.74
2018-04-13T13:39:23.972Z,21.03
2018-04-13T13:41:51.449Z,21.17
2018-04-13T13:44:18.952Z,21.10
2018-04-13T13:46:46.428Z,20.92
2018-04-13T13:49:13.882Z,20.95
2018-04-13T13:51:41.527Z,20.82
2018-04-13T13:54:09.070Z,20.82
2018-04-13T13:56:36.668Z,20.81
2018-04-13T13:59:04.137Z,20.92
2018-04-13T14:01:31.636Z,20.87
2018-04-13T14:03:59.124Z,20.90
2018-04-13T14:06:26.650Z,21.02
2018-04-13T14:08:54.100Z,21.21
2018-04-13T14:11:21.585Z,21.40
2018-04-13T14:13:49.091Z,21.59
2018-04-13T14:16:16.569Z,21.66
2018-04-13T14:18:44.027Z,21.67
2018-04-13T14:21:11.491Z,21.75
2018-04-13T14:23:39.150Z,21.77
2018-04-13T14:26:06.659Z,21.68
2018-04-13T14:28:34.136Z,21.57
2018-04-13T14:31:01.623Z,21.60
2018-04-13T14:33:29.137Z,21.64
2018-04-13T14:35:56.611Z,21.77
2018-04-13T14:38:24.096Z,21.93
2018-04-13T14:43:42.080Z,21.80
2018-04-13T14:46:09.528Z,21.71
2018-04-13T14:48:37.046Z,21.61
2018-04-13T14:51:04.586Z,21.48
2018-04-13T14:53:32.034Z,21.51
2018-04-13T14:55:59.507Z,21.50
2018-04-13T14:58:26.983Z,21.50
2018-04-13T15:00:54.595Z,21.60
2018-04-13T15:03:22.015Z,21.65
2018-04-13T15:05:49.604Z,21.88
2018-04-13T15:08:17.109Z,21.96
2018-04-13T15:10:44.609Z,21.82
2018-04-13T15:13:12.141Z,21.85
2018-04-13T15:15:39.642Z,21.78
2018-04-13T15:18:07.188Z,21.63
2018-04-13T15:20:34.705Z,21.63
2018-04-13T15:23:02.221Z,21.53
2018-04-13T15:25:29.782Z,21.22
2018-04-13T15:27:57.343Z,20.94
2018-04-13T15:30:24.888Z,20.68
2018-04-13T15:32:52.453Z,20.47
2018-04-13T15:35:19.976Z,20.41
2018-04-13T15:37:47.432Z,20.50
2018-04-13T15:40:14.919Z,20.55
2018-04-13T15:42:42.377Z,20.40
2018-04-13T15:45:09.849Z,20.26
2018-04-13T15:47:37.340Z,20.22
2018-04-13T15:50:04.855Z,20.25
2018-04-13T15:52:32.353Z,20.27
2018-04-13T15:54:59.832Z,20.22
2018-04-13T15:57:27.289Z,19.83
2018-04-13T15:59:54.758Z,19.45
2018-04-13T16:02:22.334Z,19.19
2018-04-13T16:04:49.893Z,19.10
2018-04-13T16:07:17.378Z,19.01
2018-04-13T16:09:44.934Z,18.90
2018-04-13T16:12:12.525Z,18.78
2018-04-13T16:14:39.973Z,18.54
2018-04-13T16:17:07.459Z,18.37
2018-04-13T16:19:34.933Z,18.26
2018-04-13T16:22:02.424Z,18.16
2018-04-13T16:24:29.989Z,18.10
2018-04-13T16:26:57.533Z,18.11
2018-04-13T16:29:24.986Z,18.13
2018-04-13T16:31:52.554Z,18.18
2018-04-13T16:34:20.127Z,18.12
2018-04-13T16:36:47.616Z,18.05
2018-04-13T16:39:15.117Z,17.99
2018-04-13T16:41:42.648Z,17.97
2018-04-13T16:44:10.161Z,17.87
2018-04-13T16:46:37.725Z,17.83
2018-04-13T16:49:05.388Z,17.81
2018-04-13T16:51:32.896Z,17.73
2018-04-13T16:54:00.416Z,17.72
2018-04-13T16:56:27.883Z,17.70
2018-04-13T16:58:55.366Z,17.74
2018-04-13T17:01:22.870Z,17.79
2018-04-13T17:03:50.352Z,17.86
2018-04-13T17:06:17.852Z,17.87
2018-04-13T17:08:45.448Z,17.82
2018-04-13T17:11:12.948Z,17.72
2018-04-13T17:13:40.475Z,17.66
2018-04-13T17:16:08.110Z,17.58
2018-04-13T17:18:35.579Z,17.51
2018-04-13T17:21:03.048Z,17.46
2018-04-13T17:23:30.569Z,17.39
2018-04-13T17:25:58.022Z,17.41
2018-04-13T17:28:25.613Z,17.42
2018-04-13T17:30:53.063Z,17.40
2018-04-13T17:33:20.552Z,17.46
2018-04-13T17:35:48.049Z,17.55
2018-04-13T17:38:15.572Z,17.47
2018-04-13T17:40:43.074Z,17.37
2018-04-13T17:43:10.678Z,17.21
2018-04-13T17:45:38.132Z,17.10
2018-04-13T17:48:05.638Z,17.01
2018-04-13T17:50:33.260Z,16.95
2018-04-13T17:53:00.850Z,16.77
2018-04-13T17:55:28.320Z,16.58
2018-04-13T17:57:55.828Z,16.11
2018-04-13T18:00:23.312Z,15.64
2018-04-13T18:02:50.814Z,15.23
2018-04-13T18:05:18.413Z,14.85
2018-04-13T18:07:46.076Z,14.51
2018-04-13T18:10:13.629Z,14.27
2018-04-13T18:12:41.146Z,14.01
2018-04-13T18:15:08.612Z,13.86
2018-04-13T18:17:36.068Z,13.80
2018-04-13T18:20:03.551Z,13.70
2018-04-13T18:22:31.072Z,13.67
2018-04-13T18:24:58.595Z,13.63
2018-04-13T18:27:26.064Z,13.63
2018-04-13T18:29:53.565Z,13.67
2018-04-13T18:32:21.023Z,13.60
2018-04-13T18:34:48.477Z,13.61
2018-04-13T18:37:16.121Z,13.59
2018-04-13T18:39:43.695Z,13.59
2018-04-13T18:42:11.206Z,13.57
2018-04-13T18:44:38.734Z,13.53
2018-04-13T18:47:06.234Z,13.56
2018-04-13T18:49:33.863Z,13.65
2018-04-13T18:52:01.409Z,13.71
2018-04-13T18:54:28.893Z,13.80
2018-04-13T18:56:56.438Z,13.90
2018-04-13T18:59:23.922Z,13.96
2018-04-13T19:01:51.415Z,14.05
2018-04-13T19:04:18.946Z,14.12
2018-04-13T19:06:46.442Z,14.21
2018-04-13T19:09:13.979Z,14.28
2018-04-13T19:11:41.560Z,14.28
2018-04-13T19:14:09.070Z,14.26
2018-04-13T19:16:36.547Z,14.23
2018-04-13T19:19:04.089Z,14.16
2018-04-13T19:21:31.659Z,14.14
2018-04-13T19:23:59.126Z,14.12
2018-04-13T19:26:26.591Z,14.12
2018-04-13T19:28:54.144Z,14.09
2018-04-13T19:31:21.655Z,14.10
2018-04-13T19:33:49.213Z,14.10
2018-04-13T19:36:16.760Z,14.10
2018-04-13T19:38:44.287Z,14.06
2018-04-13T19:41:11.806Z,14.03
2018-04-13T19:43:39.368Z,14.03
2018-04-13T19:46:06.900Z,14.12
2018-04-13T19:48:34.481Z,14.15
2018-04-13T19:51:01.976Z,14.04
2018-04-13T19:53:29.570Z,13.98
2018-04-13T19:55:57.094Z,13.98
2018-04-13T19:58:24.608Z,14.00
2018-04-13T20:00:52.212Z,14.01
2018-04-13T20:03:19.696Z,14.09
2018-04-13T20:05:47.230Z,14.13
2018-04-13T20:08:14.729Z,14.16
2018-04-13T20:10:42.220Z,14.22
2018-04-13T20:13:09.821Z,14.22
2018-04-13T20:15:37.324Z,14.17
2018-04-13T20:18:04.837Z,14.14
2018-04-13T20:20:32.527Z,14.07
2018-04-13T20:23:00.062Z,14.00
2018-04-13T20:25:27.558Z,13.93
2018-04-13T20:27:55.098Z,13.88
2018-04-13T20:30:22.601Z,13.87
2018-04-13T20:32:50.136Z,13.88
2018-04-13T20:35:17.734Z,13.93
2018-04-13T20:37:45.222Z,13.98
2018-04-13T20:40:12.726Z,13.97
2018-04-13T20:42:40.192Z,13.93
2018-04-13T20:45:07.722Z,13.90
2018-04-13T20:47:35.347Z,13.87
2018-04-13T20:50:02.856Z,13.84
2018-04-13T20:52:30.402Z,13.80
2018-04-13T20:54:57.903Z,13.76
2018-04-13T20:57:25.447Z,13.79
2018-04-13T20:59:52.988Z,13.75
2018-04-13T21:02:20.491Z,13.74
2018-04-13T21:04:48.013Z,13.72
2018-04-13T21:07:15.493Z,13.72
2018-04-13T21:09:43.089Z,13.76
2018-04-13T21:12:10.583Z,13.78
2018-04-13T21:14:38.120Z,13.79
2018-04-13T21:17:05.652Z,13.83
2018-04-13T21:19:33.212Z,13.90
2018-04-13T21:22:00.830Z,13.92
2018-04-13T21:24:28.324Z,13.92
2018-04-13T21:26:55.925Z,13.94
2018-04-13T21:29:23.390Z,13.96
2018-04-13T21:31:50.909Z,13.95
2018-04-13T21:34:18.421Z,13.93
2018-04-13T21:36:45.923Z,13.92
2018-04-13T21:39:13.460Z,13.91
2018-04-13T21:41:41.050Z,13.92
2018-04-13T21:44:08.511Z,13.87
2018-04-13T21:46:35.999Z,13.91
2018-04-13T21:49:03.499Z,13.85
2018-04-13T21:51:31.078Z,13.78
2018-04-13T21:53:58.570Z,13.71
2018-04-13T21:56:26.039Z,13.65
2018-04-13T21:58:53.520Z,13.62
2018-04-13T22:01:21.006Z,13.62
2018-04-13T22:03:48.519Z,13.61
2018-04-13T22:06:16.049Z,13.59
2018-04-13T22:08:43.549Z,13.54
2018-04-13T22:11:11.094Z,13.49
2018-04-13T22:13:38.593Z,13.46
2018-04-13T22:16:06.052Z,13.41
2018-04-13T22:18:33.536Z,13.34
2018-04-13T22:21:01.034Z,13.18
2018-04-13T22:23:28.543Z,13.09
2018-04-13T22:25:56.008Z,13.04
2018-04-13T22:28:23.497Z,13.03
2018-04-13T22:30:51.025Z,12.98
2018-04-13T22:33:18.512Z,13.00
2018-04-13T22:35:46.007Z,12.92
2018-04-13T22:38:13.499Z,12.95
2018-04-13T22:40:40.973Z,12.89
2018-04-13T22:43:08.469Z,12.68
2018-04-13T22:45:35.943Z,12.48
2018-04-13T22:48:03.473Z,12.38
2018-04-13T22:50:30.935Z,12.28
2018-04-13T22:52:58.429Z,12.17
2018-04-13T22:55:25.933Z,12.08
2018-04-13T22:57:53.389Z,12.01
2018-04-13T23:00:20.895Z,12.00
2018-04-13T23:02:48.415Z,11.82
2018-04-13T23:05:15.910Z,11.69
2018-04-13T23:07:43.417Z,11.57
2018-04-13T23:10:10.922Z,11.65
2018-04-13T23:12:38.400Z,11.62
2018-04-13T23:15:05.852Z,11.58
2018-04-13T23:17:33.324Z,11.56
2018-04-13T23:20:00.876Z,11.61
2018-04-13T23:22:38.407Z,11.65
2018-04-13T23:25:06.057Z,11.68
2018-04-13T23:27:33.545Z,11.70
2018-04-13T23:30:01.053Z,11.87
2018-04-13T23:32:28.547Z,11.85
2018-04-13T23:34:56.014Z,11.85
2018-04-13T23:37:23.591Z,11.80
2018-04-13T23:39:51.138Z,11.82
2018-04-13T23:42:18.632Z,11.79
2018-04-13T23:44:46.135Z,11.66
2018-04-13T23:47:13.631Z,11.59
2018-04-13T23:49:41.202Z,11.58
2018-04-13T23:52:08.973Z,11.59
2018-04-13T23:54:36.459Z,11.56
2018-04-13T23:57:03.978Z,11.57
2018-04-13T23:59:31.509Z,11.55
